Time;durP1;ratioP1;P1;durP2;ratioP2;P2;SDS_P1;SDS_P2;PMS_P1;PMS_P2;Temp;Humidity;BMP_temperature;BMP_pressure;BME280_temperature;BME280_humidity;BME280_pressure;Samples;Min_cycle;Max_cycle;Signal;HPM_P1;HPM_P2
2023/01/17 00:02:00;;;;;;;7.43;0.20;;;3.20;99.90;;;;;;5050423;28;20403;-91
2023/01/17 00:10:06;;;;;;;6.10;0.40;;;3.10;99.90;;;;;;5066599;28;20399;-91
2023/01/17 00:12:33;;;;;;;6.80;0.20;;;3.10;99.90;;;;;;5048346;28;20422;-92
2023/01/17 00:14:59;;;;;;;5.78;0.32;;;3.10;99.90;;;;;;5050398;28;20403;-95
2023/01/17 00:17:26;;;;;;;6.87;0.40;;;3.20;99.90;;;;;;5049007;28;20432;-91
2023/01/17 01:35:08;;;;;;;7.65;0.50;;;3.00;99.40;;;;;;5065081;28;20404;-92
2023/01/17 01:37:34;;;;;;;7.07;0.40;;;3.00;99.40;;;;;;5049206;28;20454;-94
2023/01/17 01:40:00;;;;;;;9.23;0.50;;;3.10;99.40;;;;;;5049110;28;20600;-93
2023/01/17 01:42:25;;;;;;;7.63;0.40;;;3.10;99.50;;;;;;5048318;28;20490;-91
2023/01/17 01:44:53;;;;;;;7.03;0.40;;;3.10;99.30;;;;;;5049187;28;20446;-91
2023/01/17 01:47:33;;;;;;;7.32;0.55;;;3.10;99.40;;;;;;5048088;28;20411;-92
2023/01/17 01:50:04;;;;;;;6.57;0.70;;;3.20;98.90;;;;;;5053189;28;20446;-91
2023/01/17 01:52:33;;;;;;;8.00;0.47;;;3.10;98.70;;;;;;5051622;28;20545;-92
2023/01/17 01:55:06;;;;;;;5.53;0.20;;;3.00;98.20;;;;;;5052131;28;20404;-92
2023/01/17 01:57:38;;;;;;;4.80;0.20;;;3.10;98.20;;;;;;5052775;28;20961;-91
2023/01/17 02:00:10;;;;;;;6.03;0.30;;;3.10;98.00;;;;;;5051644;28;20478;-93
2023/01/17 02:02:36;;;;;;;6.82;0.32;;;3.00;98.40;;;;;;5052852;28;20400;-92
2023/01/17 02:05:02;;;;;;;5.68;0.20;;;3.00;97.80;;;;;;5051116;28;20761;-92
2023/01/17 02:07:38;;;;;;;4.55;0.20;;;3.10;97.80;;;;;;5052944;28;20752;-92
2023/01/17 02:10:04;;;;;;;5.67;0.60;;;3.10;97.30;;;;;;5051645;28;20422;-93
2023/01/17 02:12:30;;;;;;;5.93;0.40;;;3.10;97.40;;;;;;5051624;28;20444;-93
2023/01/17 02:14:56;;;;;;;5.30;0.50;;;3.20;97.40;;;;;;5052470;28;20435;-93
2023/01/17 02:17:53;;;;;;;6.30;0.45;;;3.10;97.40;;;;;;5050536;28;20899;-92
2023/01/17 02:20:57;;;;;;;5.35;0.30;;;3.10;97.50;;;;;;5052856;28;20769;-94
2023/01/17 02:24:00;;;;;;;8.23;0.23;;;3.10;97.80;;;;;;5051875;28;20416;-92
2023/01/17 02:26:47;;;;;;;7.00;0.70;;;3.10;97.90;;;;;;5050358;28;20420;-91
2023/01/17 02:29:28;;;;;;;5.70;0.52;;;3.20;98.10;;;;;;5052148;28;20502;-93
2023/01/17 02:32:02;;;;;;;4.78;0.30;;;3.10;97.80;;;;;;5051787;28;20420;-95
2023/01/17 02:34:44;;;;;;;4.65;0.22;;;3.10;97.00;;;;;;5050529;28;20960;-91
2023/01/17 02:37:29;;;;;;;6.13;0.20;;;3.10;96.60;;;;;;5051819;28;20434;-91
2023/01/17 02:40:22;;;;;;;4.87;0.40;;;3.10;96.40;;;;;;5050256;28;21043;-91
2023/01/17 02:42:57;;;;;;;4.20;0.20;;;3.10;97.10;;;;;;5051174;28;20451;-93
2023/01/17 02:45:22;;;;;;;6.20;0.30;;;2.80;97.40;;;;;;5051505;28;20441;-91
2023/01/17 02:47:48;;;;;;;5.17;0.40;;;2.90;97.90;;;;;;5050535;28;20416;-91
2023/01/17 02:50:18;;;;;;;6.73;0.80;;;3.10;97.70;;;;;;5052560;28;20552;-92
2023/01/17 02:53:01;;;;;;;6.00;0.20;;;2.80;97.50;;;;;;5049718;28;20415;-92
2023/01/17 02:55:42;;;;;;;7.75;0.43;;;2.80;97.40;;;;;;5051198;28;20408;-93
2023/01/17 02:58:23;;;;;;;5.90;0.20;;;2.80;97.30;;;;;;5051556;28;20477;-93
2023/01/17 03:01:00;;;;;;;6.20;0.40;;;2.80;97.40;;;;;;5049171;28;20399;-92
2023/01/17 03:03:34;;;;;;;4.38;0.20;;;2.80;97.30;;;;;;5051442;28;20404;-92
2023/01/17 03:06:14;;;;;;;3.17;0.20;;;2.80;95.40;;;;;;5049826;28;20462;-91
2023/01/17 03:08:43;;;;;;;5.47;0.40;;;2.80;96.10;;;;;;5050665;28;20415;-93
2023/01/17 03:11:09;;;;;;;5.82;0.30;;;2.80;96.30;;;;;;5051787;28;20827;-92
2023/01/17 03:13:36;;;;;;;6.72;0.60;;;3.00;96.80;;;;;;5049764;28;20418;-92
2023/01/17 03:16:12;;;;;;;6.82;0.40;;;2.90;96.90;;;;;;5051165;28;20404;-93
2023/01/17 03:18:38;;;;;;;8.75;0.30;;;2.90;96.50;;;;;;5049001;28;20422;-93
2023/01/17 03:21:04;;;;;;;6.00;0.40;;;3.00;96.60;;;;;;5051399;28;20993;-93
2023/01/17 03:23:29;;;;;;;5.65;0.25;;;2.90;95.80;;;;;;5050533;28;20452;-91
2023/01/17 03:25:55;;;;;;;7.32;0.30;;;2.90;95.60;;;;;;5051020;28;20948;-92
2023/01/17 03:28:21;;;;;;;7.23;0.30;;;2.80;95.40;;;;;;5050712;28;20484;-90
2023/01/17 03:30:46;;;;;;;3.83;0.30;;;3.10;95.70;;;;;;5049942;28;20423;-90
2023/01/17 03:33:14;;;;;;;6.25;0.25;;;2.90;96.60;;;;;;5051213;28;20400;-91
2023/01/17 03:35:40;;;;;;;5.95;0.60;;;2.90;96.40;;;;;;5048711;28;20884;-91
2023/01/17 03:38:06;;;;;;;5.83;0.20;;;2.90;96.40;;;;;;5051150;28;20432;-92
2023/01/17 03:40:32;;;;;;;6.70;0.50;;;2.80;96.50;;;;;;5049289;28;20408;-93
2023/01/17 03:42:57;;;;;;;4.47;0.20;;;2.70;96.70;;;;;;5050459;28;20399;-92
2023/01/17 03:45:23;;;;;;;6.85;0.70;;;2.70;96.20;;;;;;5050591;28;20443;-91
2023/01/17 03:47:49;;;;;;;5.35;0.20;;;2.80;96.20;;;;;;5050073;28;20408;-92
2023/01/17 03:50:14;;;;;;;6.97;0.30;;;2.80;95.40;;;;;;5050799;28;20400;-93
2023/01/17 03:52:40;;;;;;;7.03;0.60;;;2.70;95.10;;;;;;5048734;28;20410;-93
2023/01/17 03:55:06;;;;;;;7.03;0.60;;;2.70;95.20;;;;;;5050974;28;20525;-92
2023/01/17 03:57:32;;;;;;;6.75;0.40;;;2.70;95.00;;;;;;5048546;28;20434;-91
2023/01/17 03:59:58;;;;;;;7.07;0.50;;;3.00;95.20;;;;;;5050595;28;20486;-90
2023/01/17 04:02:24;;;;;;;6.17;0.30;;;2.70;95.10;;;;;;5065700;28;20759;-91
2023/01/17 04:04:50;;;;;;;3.72;0.30;;;2.80;95.20;;;;;;5050252;28;20894;-94
2023/01/17 04:07:16;;;;;;;3.17;0.35;;;2.80;94.70;;;;;;5049892;28;20413;-94
2023/01/17 04:09:41;;;;;;;4.05;0.25;;;2.70;94.20;;;;;;5049941;28;20697;-92
2023/01/17 04:12:08;;;;;;;4.25;0.10;;;2.60;94.00;;;;;;5050063;28;20418;-94
2023/01/17 04:14:34;;;;;;;2.20;0.28;;;2.50;93.70;;;;;;5048275;28;20406;-92
2023/01/17 04:17:00;;;;;;;2.67;0.10;;;2.50;92.90;;;;;;5050618;28;20395;-93
2023/01/17 04:19:27;;;;;;;3.53;0.10;;;2.60;92.80;;;;;;5048498;28;20411;-90
2023/01/17 04:21:53;;;;;;;4.32;0.20;;;2.40;92.70;;;;;;5050276;28;20781;-91
2023/01/17 04:24:18;;;;;;;4.45;0.20;;;2.30;93.00;;;;;;5049281;28;20411;-91
2023/01/17 04:26:44;;;;;;;6.28;0.20;;;2.40;93.30;;;;;;5049242;28;20408;-90
2023/01/17 04:29:10;;;;;;;2.77;0.20;;;2.20;93.80;;;;;;5050046;28;20545;-91
2023/01/17 04:31:35;;;;;;;3.63;0.13;;;2.40;94.50;;;;;;5048313;28;20895;-89
2023/01/17 04:34:01;;;;;;;3.83;0.30;;;2.30;94.60;;;;;;5050147;28;20416;-90
2023/01/17 04:36:26;;;;;;;3.80;0.20;;;2.30;95.20;;;;;;5047804;28;20855;-91
2023/01/17 04:38:52;;;;;;;4.50;0.20;;;2.30;95.60;;;;;;5050159;28;20419;-90
2023/01/17 04:41:18;;;;;;;4.97;0.20;;;2.50;95.70;;;;;;5048499;28;20465;-93
2023/01/17 04:43:43;;;;;;;5.67;0.30;;;2.30;95.70;;;;;;5050113;28;20403;-92
2023/01/17 04:46:09;;;;;;;3.85;0.20;;;2.30;95.60;;;;;;5049366;28;20404;-91
2023/01/17 04:48:35;;;;;;;5.30;0.25;;;2.20;95.60;;;;;;5048554;28;20507;-91
2023/01/17 04:51:02;;;;;;;4.93;0.40;;;2.20;95.80;;;;;;5049731;28;20411;-92
2023/01/17 04:53:28;;;;;;;4.30;0.22;;;2.20;96.00;;;;;;5048393;28;20439;-92
2023/01/17 04:55:54;;;;;;;5.35;0.55;;;2.20;96.60;;;;;;5050026;28;20489;-92
2023/01/17 04:58:20;;;;;;;6.35;0.30;;;2.10;96.60;;;;;;5047911;28;20458;-91
2023/01/17 05:00:49;;;;;;;9.15;0.45;;;2.10;96.60;;;;;;5049925;28;20440;-91
2023/01/17 05:03:16;;;;;;;6.53;0.20;;;2.00;96.90;;;;;;5048562;28;20407;-91
2023/01/17 05:05:42;;;;;;;5.45;0.20;;;2.00;97.00;;;;;;5048984;28;20408;-94
2023/01/17 05:08:08;;;;;;;4.72;0.40;;;1.90;96.50;;;;;;5050092;28;20498;-92
2023/01/17 05:10:34;;;;;;;4.90;0.30;;;1.90;97.30;;;;;;5047604;28;20511;-92
2023/01/17 05:12:59;;;;;;;7.93;0.50;;;1.80;97.60;;;;;;5049401;28;20411;-92
2023/01/17 05:15:26;;;;;;;7.93;0.40;;;1.70;97.50;;;;;;5047933;28;20415;-92
2023/01/17 05:17:52;;;;;;;5.65;0.20;;;1.70;97.60;;;;;;5049865;28;20445;-91
2023/01/17 05:20:19;;;;;;;9.00;0.40;;;1.60;97.60;;;;;;5048547;28;20847;-91
2023/01/17 05:22:54;;;;;;;6.13;0.30;;;1.50;97.70;;;;;;5050717;28;20400;-90
2023/01/17 05:25:23;;;;;;;6.10;0.30;;;1.40;97.70;;;;;;5053231;28;20898;-91
2023/01/17 05:27:49;;;;;;;6.20;0.30;;;1.40;97.60;;;;;;5051860;28;20596;-90
2023/01/17 05:30:16;;;;;;;6.30;0.70;;;1.40;97.50;;;;;;5053444;28;20399;-92
2023/01/17 05:32:47;;;;;;;7.63;0.30;;;1.40;97.20;;;;;;5051294;28;20395;-90
2023/01/17 05:35:12;;;;;;;5.23;0.37;;;1.40;97.20;;;;;;5053321;28;20501;-91
2023/01/17 05:37:38;;;;;;;5.47;0.40;;;1.40;97.40;;;;;;5051981;28;20423;-90
2023/01/17 05:40:05;;;;;;;4.78;0.45;;;1.30;97.00;;;;;;5053085;28;20944;-91
2023/01/17 05:42:30;;;;;;;5.05;0.20;;;1.30;96.90;;;;;;5052295;28;20412;-90
2023/01/17 05:44:56;;;;;;;5.50;0.28;;;1.30;96.90;;;;;;5051505;28;20415;-91
2023/01/17 05:47:21;;;;;;;5.65;0.30;;;1.30;96.70;;;;;;5052889;28;20763;-89
2023/01/17 05:49:47;;;;;;;4.63;0.20;;;1.30;96.50;;;;;;5051425;28;20403;-92
2023/01/17 05:52:13;;;;;;;6.03;0.57;;;1.30;96.30;;;;;;5053172;28;20434;-91
2023/01/17 05:54:38;;;;;;;4.63;0.22;;;1.20;96.10;;;;;;5051203;28;20575;-91
2023/01/17 05:57:04;;;;;;;4.07;0.30;;;1.30;96.00;;;;;;5052502;28;20419;-90
2023/01/17 05:59:29;;;;;;;5.43;0.20;;;1.20;96.10;;;;;;5052070;28;20454;-90
2023/01/17 06:01:55;;;;;;;5.40;0.20;;;1.20;96.10;;;;;;5052506;28;20412;-90
2023/01/17 06:04:21;;;;;;;5.40;0.35;;;1.20;96.00;;;;;;5052420;28;20899;-92
2023/01/17 06:06:46;;;;;;;5.93;0.30;;;1.20;96.10;;;;;;5050912;28;20412;-89
2023/01/17 06:09:12;;;;;;;2.83;0.20;;;1.20;95.90;;;;;;5052553;28;20412;-91
2023/01/17 06:11:37;;;;;;;3.97;0.17;;;1.20;95.90;;;;;;5050555;28;20446;-90
2023/01/17 06:14:03;;;;;;;4.75;0.15;;;1.10;96.00;;;;;;5052549;28;20470;-91
2023/01/17 06:16:28;;;;;;;2.80;0.10;;;1.20;95.60;;;;;;5051141;28;20614;-90
2023/01/17 06:18:54;;;;;;;2.90;0.10;;;1.20;95.30;;;;;;5052121;28;20502;-91
2023/01/17 06:21:20;;;;;;;4.93;0.10;;;1.30;95.30;;;;;;5051104;28;20428;-90
2023/01/17 06:23:45;;;;;;;5.75;0.15;;;1.40;95.30;;;;;;5051474;28;20736;-90
2023/01/17 06:26:11;;;;;;;5.82;0.28;;;1.50;95.20;;;;;;5052318;28;20435;-91
2023/01/17 06:28:37;;;;;;;4.53;0.10;;;1.40;95.00;;;;;;5050541;28;20490;-92
2023/01/17 06:31:06;;;;;;;5.20;0.20;;;1.40;95.20;;;;;;5052225;28;20455;-92
2023/01/17 06:33:32;;;;;;;2.65;0.15;;;1.40;95.30;;;;;;5049861;28;20415;-91
2023/01/17 06:35:57;;;;;;;2.92;0.10;;;1.30;95.00;;;;;;5052204;28;20404;-91
2023/01/17 06:38:23;;;;;;;4.30;0.17;;;1.30;95.30;;;;;;5050741;28;20431;-91
2023/01/17 06:40:49;;;;;;;4.47;0.20;;;1.30;95.60;;;;;;5051463;28;20403;-90
2023/01/17 06:43:14;;;;;;;3.83;0.20;;;1.20;95.60;;;;;;5051340;28;20443;-91
2023/01/17 06:45:40;;;;;;;3.35;0.10;;;1.10;95.60;;;;;;5051203;28;20439;-93
2023/01/17 06:48:06;;;;;;;2.72;0.10;;;1.00;95.90;;;;;;5052170;28;20403;-91
2023/01/17 06:50:32;;;;;;;2.60;0.20;;;1.00;96.10;;;;;;5049926;28;20404;-91
2023/01/17 06:53:01;;;;;;;4.83;0.43;;;0.90;96.70;;;;;;5051858;28;20400;-94
2023/01/17 06:55:28;;;;;;;4.40;0.20;;;0.80;96.50;;;;;;5049950;28;20511;-91
2023/01/17 06:57:58;;;;;;;4.32;0.28;;;0.80;97.00;;;;;;5051824;28;20514;-92
2023/01/17 07:00:25;;;;;;;3.78;0.30;;;0.90;97.10;;;;;;5050960;28;20419;-91
2023/01/17 07:02:51;;;;;;;4.53;0.80;;;0.70;97.30;;;;;;5050530;28;20815;-91
2023/01/17 07:05:17;;;;;;;4.32;0.30;;;0.80;97.30;;;;;;5051383;28;20537;-91
2023/01/17 07:07:44;;;;;;;4.60;0.30;;;0.60;97.40;;;;;;5049861;28;20408;-91
2023/01/17 07:10:11;;;;;;;7.40;0.70;;;1.00;97.50;;;;;;5051431;28;20415;-91
2023/01/17 07:12:37;;;;;;;5.73;0.40;;;0.50;97.50;;;;;;5048797;28;20480;-91
2023/01/17 07:15:03;;;;;;;5.03;0.50;;;0.60;97.70;;;;;;5051537;28;20858;-93
2023/01/17 07:17:28;;;;;;;3.70;0.25;;;0.50;97.50;;;;;;5049614;28;20415;-90
2023/01/17 07:19:54;;;;;;;6.07;0.20;;;0.60;97.40;;;;;;5051016;28;20478;-91
2023/01/17 07:22:20;;;;;;;4.47;0.20;;;0.50;97.70;;;;;;5050894;28;20423;-90
2023/01/17 07:24:45;;;;;;;3.88;0.20;;;0.50;97.70;;;;;;5049507;28;20415;-91
2023/01/17 07:27:11;;;;;;;5.45;0.20;;;0.50;97.60;;;;;;5050991;28;20411;-91
2023/01/17 07:29:37;;;;;;;7.82;0.57;;;0.50;97.50;;;;;;5049497;28;20415;-90
2023/01/17 07:32:02;;;;;;;5.50;0.20;;;0.50;97.60;;;;;;5051222;28;20392;-92
2023/01/17 07:34:28;;;;;;;4.97;0.40;;;0.50;97.50;;;;;;5048968;28;20834;-90
2023/01/17 07:36:54;;;;;;;4.85;0.55;;;0.50;97.50;;;;;;5051298;28;20465;-90
2023/01/17 07:39:20;;;;;;;4.00;0.20;;;0.50;97.60;;;;;;5049705;28;20435;-89
2023/01/17 07:41:46;;;;;;;5.25;0.30;;;0.50;97.50;;;;;;5049990;28;20403;-92
2023/01/17 07:44:12;;;;;;;5.17;0.20;;;0.50;97.50;;;;;;5050775;28;20411;-90
2023/01/17 07:46:38;;;;;;;5.22;0.50;;;0.50;97.50;;;;;;5048921;28;20441;-92
2023/01/17 07:49:04;;;;;;;5.70;0.30;;;0.50;97.50;;;;;;5050552;28;20404;-91
2023/01/17 07:51:30;;;;;;;6.00;0.53;;;0.50;97.50;;;;;;5049258;28;20418;-90
2023/01/17 07:53:56;;;;;;;4.77;0.30;;;0.50;97.60;;;;;;5051196;28;20438;-91
2023/01/17 07:56:21;;;;;;;6.17;0.30;;;0.50;97.70;;;;;;5049045;28;20519;-91
2023/01/17 07:58:50;;;;;;;4.38;0.30;;;0.60;97.70;;;;;;5067020;28;20487;-91
2023/01/17 08:01:15;;;;;;;7.22;0.60;;;0.50;97.50;;;;;;5049892;28;20819;-91
2023/01/17 08:03:41;;;;;;;7.13;0.50;;;0.60;97.50;;;;;;5049049;28;20408;-90
2023/01/17 08:06:20;;;;;;;6.43;0.30;;;0.60;97.50;;;;;;5050958;28;20404;-91
2023/01/17 08:08:46;;;;;;;5.97;0.40;;;0.60;97.70;;;;;;5048061;28;20415;-90
2023/01/17 08:11:13;;;;;;;5.20;0.40;;;0.60;97.60;;;;;;5050482;28;20469;-92
2023/01/17 08:13:40;;;;;;;3.92;0.30;;;0.70;97.70;;;;;;5048752;28;20875;-91
2023/01/17 08:16:08;;;;;;;4.20;0.30;;;0.70;97.60;;;;;;5050130;28;20973;-91
2023/01/17 08:18:34;;;;;;;7.07;0.40;;;0.80;97.60;;;;;;5049611;28;20442;-92
2023/01/17 08:20:59;;;;;;;5.45;0.40;;;0.90;97.30;;;;;;5049265;28;20396;-91
2023/01/17 08:23:25;;;;;;;3.75;0.20;;;0.90;97.40;;;;;;5050310;28;20400;-91
2023/01/17 08:25:50;;;;;;;8.17;0.40;;;0.90;97.00;;;;;;5048933;28;20898;-90
2023/01/17 08:28:18;;;;;;;3.07;0.20;;;1.00;97.00;;;;;;5050044;28;20440;-92
2023/01/17 08:30:44;;;;;;;3.63;0.20;;;1.10;97.10;;;;;;5048737;28;20404;-93
2023/01/17 08:33:10;;;;;;;5.95;0.40;;;1.10;97.10;;;;;;5050092;28;20403;-92
2023/01/17 08:35:35;;;;;;;5.28;0.50;;;1.10;97.30;;;;;;5048913;28;20411;-90
2023/01/17 08:38:03;;;;;;;3.55;0.30;;;1.10;97.10;;;;;;5049591;28;20411;-91
2023/01/17 08:40:32;;;;;;;3.78;0.50;;;1.20;97.10;;;;;;5050175;28;20412;-90
2023/01/17 08:42:59;;;;;;;4.55;0.20;;;1.30;97.00;;;;;;5048033;28;20453;-90
2023/01/17 08:45:26;;;;;;;6.82;0.40;;;1.30;96.90;;;;;;5050114;28;20400;-90
2023/01/17 08:47:52;;;;;;;4.55;0.40;;;1.30;96.60;;;;;;5048167;28;20419;-92
2023/01/17 08:50:21;;;;;;;3.53;0.23;;;1.40;96.70;;;;;;5050184;28;20442;-91
2023/01/17 08:52:47;;;;;;;4.75;0.30;;;1.40;96.80;;;;;;5048879;28;20410;-92
2023/01/17 08:55:14;;;;;;;3.92;0.20;;;1.40;96.50;;;;;;5049462;28;20400;-92
2023/01/17 08:57:39;;;;;;;4.03;0.20;;;1.50;96.40;;;;;;5052436;28;20434;-91
2023/01/17 09:00:06;;;;;;;2.97;0.20;;;1.40;96.20;;;;;;5053007;28;20793;-91
2023/01/17 09:02:32;;;;;;;4.88;0.20;;;1.60;96.30;;;;;;5054170;28;20876;-93
2023/01/17 09:04:57;;;;;;;4.47;0.50;;;1.70;96.40;;;;;;5051705;28;20932;-91
2023/01/17 09:07:25;;;;;;;4.63;0.38;;;1.70;96.00;;;;;;5053808;28;20889;-92
2023/01/17 09:09:51;;;;;;;3.55;0.20;;;1.90;95.80;;;;;;5052220;28;20411;-91
2023/01/17 09:12:19;;;;;;;4.38;0.28;;;1.90;95.80;;;;;;5053586;28;20408;-90
2023/01/17 09:14:45;;;;;;;5.03;0.40;;;2.20;95.40;;;;;;5052982;28;20865;-91
2023/01/17 09:17:10;;;;;;;6.28;0.30;;;2.40;94.90;;;;;;5052720;28;20498;-93
2023/01/17 09:19:38;;;;;;;5.03;0.22;;;2.50;94.80;;;;;;5053299;28;21044;-90
2023/01/17 09:22:05;;;;;;;5.68;0.45;;;2.80;94.30;;;;;;5051831;28;20436;-92
2023/01/17 09:24:32;;;;;;;3.17;0.30;;;3.00;94.00;;;;;;5053729;28;20402;-93
2023/01/17 09:26:57;;;;;;;4.30;0.30;;;3.20;94.00;;;;;;5051576;28;20898;-93
2023/01/17 09:29:23;;;;;;;2.42;0.10;;;3.30;93.40;;;;;;5053538;28;20411;-91
2023/01/17 09:31:49;;;;;;;2.08;0.10;;;3.30;92.70;;;;;;5051909;28;20399;-92
2023/01/17 09:34:14;;;;;;;0.88;0.00;;;3.30;92.20;;;;;;5053142;28;20443;-90
2023/01/17 09:36:41;;;;;;;1.63;0.00;;;3.30;91.70;;;;;;5053241;28;20399;-91
2023/01/17 09:39:08;;;;;;;1.10;0.00;;;3.40;91.00;;;;;;5051564;28;20415;-92
2023/01/17 09:41:54;;;;;;;1.50;0.00;;;3.50;91.20;;;;;;5053468;28;20461;-91
2023/01/17 09:44:27;;;;;;;1.02;0.10;;;3.60;91.80;;;;;;5051115;28;20400;-91
2023/01/17 09:47:01;;;;;;;1.77;0.00;;;3.60;91.20;;;;;;5053236;28;20404;-92
2023/01/17 09:49:41;;;;;;;3.00;0.10;;;3.60;92.00;;;;;;5052416;28;20408;-91
2023/01/17 09:52:10;;;;;;;1.17;0.10;;;3.50;92.10;;;;;;5051622;28;20979;-93
2023/01/17 09:54:39;;;;;;;2.45;0.10;;;3.60;92.80;;;;;;5053207;28;20434;-90
2023/01/17 09:57:29;;;;;;;2.87;0.20;;;3.80;93.00;;;;;;5051230;28;20801;-92
2023/01/17 10:00:13;;;;;;;2.92;0.10;;;4.20;93.50;;;;;;5052971;28;20438;-93
2023/01/17 10:02:57;;;;;;;1.90;0.10;;;4.60;92.00;;;;;;5052744;28;20403;-91
2023/01/17 10:06:10;;;;;;;2.40;0.20;;;5.00;92.00;;;;;;5050519;28;20427;-93
2023/01/17 10:08:36;;;;;;;2.75;0.30;;;5.20;90.50;;;;;;4976434;28;20503;-91
2023/01/17 10:11:24;;;;;;;3.05;0.30;;;5.50;90.30;;;;;;5052363;28;20428;-93
2023/01/17 10:14:24;;;;;;;2.23;0.20;;;5.80;90.70;;;;;;5051186;28;20822;-94
2023/01/17 10:17:02;;;;;;;3.90;0.30;;;6.10;90.80;;;;;;5052694;28;20421;-93
2023/01/17 10:19:58;;;;;;;2.75;0.22;;;6.30;89.10;;;;;;5050934;28;20936;-92
2023/01/17 10:22:53;;;;;;;2.67;0.40;;;6.30;88.30;;;;;;5050595;28;20435;-91
2023/01/17 10:25:34;;;;;;;2.90;0.30;;;6.10;87.30;;;;;;5052587;28;20504;-93
2023/01/17 10:28:04;;;;;;;2.63;0.20;;;6.00;87.00;;;;;;5050941;28;20404;-93
2023/01/17 10:30:42;;;;;;;5.05;0.32;;;5.90;88.20;;;;;;5052010;28;20654;-93
2023/01/17 10:33:18;;;;;;;2.45;0.50;;;5.80;87.10;;;;;;5052199;28;20499;-93
2023/01/17 10:35:53;;;;;;;3.30;0.50;;;5.80;85.70;;;;;;5050178;28;20466;-93
2023/01/17 10:38:22;;;;;;;2.47;0.20;;;6.00;89.40;;;;;;5052245;28;20427;-92
2023/01/17 10:40:53;;;;;;;3.25;0.30;;;6.10;87.50;;;;;;5050620;28;20873;-93
2023/01/17 10:43:26;;;;;;;2.50;0.20;;;6.10;87.90;;;;;;5051855;28;20894;-94
2023/01/17 10:45:55;;;;;;;4.80;0.22;;;6.50;87.70;;;;;;5051761;28;20412;-92
2023/01/17 10:48:41;;;;;;;2.42;0.20;;;6.70;88.30;;;;;;5050207;28;20387;-93
2023/01/17 10:51:18;;;;;;;2.90;0.20;;;6.90;89.20;;;;;;5051998;28;20423;-93
2023/01/17 10:54:16;;;;;;;4.38;0.57;;;7.20;90.20;;;;;;5049837;28;20411;-93
2023/01/17 10:56:41;;;;;;;3.00;0.30;;;7.40;81.90;;;;;;5043979;28;20411;-93
2023/01/17 10:59:30;;;;;;;3.13;0.20;;;7.60;83.20;;;;;;5051675;28;20531;-93
2023/01/17 11:01:58;;;;;;;3.08;0.20;;;7.70;83.40;;;;;;5049720;28;20479;-93
2023/01/17 11:04:35;;;;;;;3.05;0.20;;;7.90;82.50;;;;;;5052151;28;20427;-93
2023/01/17 11:07:23;;;;;;;2.92;0.30;;;8.00;82.10;;;;;;5050199;28;20421;-94
2023/01/17 11:09:52;;;;;;;3.17;0.25;;;8.20;80.80;;;;;;5050359;28;20767;-94
2023/01/17 11:12:21;;;;;;;2.28;0.40;;;8.30;81.10;;;;;;5051489;28;20817;-94
2023/01/17 11:15:06;;;;;;;2.75;0.20;;;8.30;78.00;;;;;;5049011;28;20412;-93
2023/01/17 11:17:34;;;;;;;3.05;0.20;;;8.30;78.40;;;;;;5051455;28;20435;-93
2023/01/17 11:20:37;;;;;;;3.22;0.15;;;8.20;77.30;;;;;;5049228;28;21040;-91
2023/01/17 11:23:22;;;;;;;3.08;0.20;;;8.30;77.90;;;;;;5050235;28;20445;-91
2023/01/17 11:25:57;;;;;;;4.33;0.20;;;8.30;78.40;;;;;;5051515;28;20473;-95
2023/01/17 11:28:29;;;;;;;4.00;0.30;;;8.40;78.20;;;;;;5049262;28;20408;-92
2023/01/17 11:31:06;;;;;;;3.60;0.30;;;8.30;76.60;;;;;;5050963;28;20400;-92
2023/01/17 11:33:47;;;;;;;2.10;0.13;;;7.80;75.80;;;;;;5050570;28;20462;-93
2023/01/17 11:36:26;;;;;;;2.88;0.30;;;7.20;75.30;;;;;;5049141;28;20400;-94
2023/01/17 11:39:04;;;;;;;2.55;0.40;;;7.00;78.60;;;;;;5051126;28;20435;-92
2023/01/17 11:41:40;;;;;;;2.63;0.30;;;7.20;80.20;;;;;;5049731;28;20443;-93
2023/01/17 11:44:26;;;;;;;2.42;0.30;;;7.40;78.80;;;;;;5050276;28;20411;-93
2023/01/17 11:47:13;;;;;;;3.15;0.20;;;7.50;78.90;;;;;;5051244;28;20499;-93
2023/01/17 11:49:41;;;;;;;2.83;0.25;;;7.60;78.70;;;;;;5049015;28;20435;-92
2023/01/17 11:52:20;;;;;;;3.08;0.28;;;7.50;75.30;;;;;;5050959;28;20407;-92
2023/01/17 11:54:47;;;;;;;2.53;0.20;;;7.50;75.00;;;;;;5049785;28;20887;-93
2023/01/17 11:57:22;;;;;;;2.47;0.23;;;7.40;75.40;;;;;;5049865;28;20415;-93
2023/01/17 11:59:48;;;;;;;2.13;0.10;;;7.70;74.70;;;;;;5050790;28;20818;-92
2023/01/17 12:02:30;;;;;;;2.88;0.20;;;8.10;74.70;;;;;;5048663;28;20477;-92
2023/01/17 12:05:24;;;;;;;3.42;0.30;;;8.30;73.90;;;;;;5051035;28;20425;-94
2023/01/17 12:08:17;;;;;;;2.50;0.20;;;8.60;73.60;;;;;;5051695;28;20851;-92
2023/01/17 12:10:51;;;;;;;2.78;0.30;;;8.70;73.80;;;;;;5049071;28;20705;-92
2023/01/17 12:16:37;;;;;;;2.85;0.30;;;9.20;76.20;;;;;;5065652;28;20486;-92
2023/01/17 12:19:19;;;;;;;4.20;0.22;;;9.80;71.20;;;;;;5048939;28;20426;-92
2023/01/17 12:22:12;;;;;;;3.03;0.10;;;10.10;68.70;;;;;;5050867;28;20400;-93
2023/01/17 12:24:53;;;;;;;4.95;0.20;;;10.10;70.50;;;;;;5048528;28;20420;-92
2023/01/17 12:27:27;;;;;;;3.17;0.20;;;10.00;71.40;;;;;;5050126;28;20420;-92
2023/01/17 12:30:10;;;;;;;2.63;0.20;;;9.70;67.20;;;;;;5049785;28;20411;-93
2023/01/17 12:32:48;;;;;;;1.95;0.20;;;9.50;68.30;;;;;;5047979;28;20404;-92
2023/01/17 12:35:24;;;;;;;4.55;0.38;;;9.10;68.70;;;;;;5050105;28;20408;-92
2023/01/17 12:38:01;;;;;;;2.85;0.30;;;8.70;67.50;;;;;;5048545;28;20423;-92
2023/01/17 12:40:35;;;;;;;2.35;0.13;;;8.40;72.20;;;;;;5049928;28;20446;-93
2023/01/17 12:43:20;;;;;;;3.63;0.20;;;8.30;72.30;;;;;;5050201;28;20415;-92
2023/01/17 12:45:48;;;;;;;2.05;0.10;;;8.20;69.80;;;;;;5048150;28;20543;-93
2023/01/17 12:48:19;;;;;;;3.60;0.20;;;8.00;72.00;;;;;;5050256;28;20438;-94
2023/01/17 12:51:08;;;;;;;2.33;0.25;;;8.10;72.70;;;;;;5048137;28;20478;-93
2023/01/17 12:53:43;;;;;;;3.97;0.20;;;8.10;69.90;;;;;;5049572;28;20419;-92
2023/01/17 12:56:14;;;;;;;3.70;0.20;;;8.00;71.50;;;;;;5050118;28;20475;-92
2023/01/17 12:58:47;;;;;;;4.10;0.32;;;8.20;72.80;;;;;;5048210;28;20420;-93
2023/01/17 13:01:38;;;;;;;3.40;0.20;;;8.40;70.30;;;;;;5050092;28;20399;-92
2023/01/17 13:04:16;;;;;;;2.08;0.10;;;8.80;69.50;;;;;;5048783;28;20709;-93
2023/01/17 13:06:57;;;;;;;2.03;0.17;;;9.20;69.70;;;;;;5048606;28;20419;-91
2023/01/17 13:09:23;;;;;;;2.30;0.20;;;9.40;67.60;;;;;;5049939;28;20423;-92
2023/01/17 13:12:03;;;;;;;2.27;0.10;;;9.30;67.60;;;;;;5047766;28;20412;-94
2023/01/17 13:14:29;;;;;;;5.38;0.28;;;8.90;67.40;;;;;;5050215;28;20791;-93
2023/01/17 13:16:58;;;;;;;1.83;0.10;;;8.40;68.60;;;;;;5048339;28;20410;-91
2023/01/17 13:19:40;;;;;;;2.97;0.20;;;8.20;69.30;;;;;;5049163;28;20433;-92
2023/01/17 13:22:09;;;;;;;2.67;0.17;;;8.20;70.40;;;;;;5049937;28;20407;-93
2023/01/17 13:24:46;;;;;;;3.53;0.20;;;8.30;72.20;;;;;;5047819;28;20396;-93
2023/01/17 13:27:45;;;;;;;1.25;0.20;;;8.50;67.20;;;;;;5049634;28;20416;-93
2023/01/17 13:30:32;;;;;;;2.58;0.20;;;8.20;70.60;;;;;;4964687;28;20431;-95
2023/01/17 13:33:19;;;;;;;3.57;0.30;;;8.20;72.00;;;;;;5047889;28;20412;-92
2023/01/17 13:35:50;;;;;;;2.60;0.13;;;7.90;72.80;;;;;;5049725;28;20891;-94
2023/01/17 13:38:53;;;;;;;1.98;0.17;;;7.60;71.60;;;;;;5047631;28;20436;-94
2023/01/17 13:41:37;;;;;;;0.88;0.10;;;7.30;71.00;;;;;;5048430;28;20408;-93
2023/01/17 13:44:21;;;;;;;2.63;0.20;;;7.00;71.60;;;;;;5051516;28;20420;-92
2023/01/17 13:47:01;;;;;;;2.30;0.10;;;6.80;71.70;;;;;;5051038;28;20404;-92
2023/01/17 13:49:33;;;;;;;3.20;0.20;;;6.70;74.60;;;;;;5053390;28;20418;-93
2023/01/17 13:52:17;;;;;;;2.72;0.20;;;6.90;74.50;;;;;;5052537;28;20422;-92
2023/01/17 13:54:45;;;;;;;4.28;0.20;;;6.70;73.10;;;;;;5051090;28;20689;-92
2023/01/17 13:57:26;;;;;;;3.85;0.20;;;6.60;75.10;;;;;;5053760;28;20415;-91
2023/01/17 13:59:53;;;;;;;2.67;0.10;;;6.90;72.90;;;;;;5051204;28;20827;-93
2023/01/17 14:02:31;;;;;;;3.75;0.40;;;6.40;74.80;;;;;;5053371;28;20396;-92
2023/01/17 14:05:07;;;;;;;2.00;0.30;;;6.30;77.40;;;;;;5052110;28;20431;-92
2023/01/17 14:07:39;;;;;;;3.42;0.30;;;6.40;75.30;;;;;;5050966;28;20407;-92
2023/01/17 14:10:27;;;;;;;2.42;0.10;;;6.30;77.30;;;;;;5052721;28;20433;-92
2023/01/17 14:12:54;;;;;;;2.05;0.10;;;6.30;76.50;;;;;;5051042;28;20408;-92
2023/01/17 14:15:23;;;;;;;1.90;0.17;;;6.10;75.20;;;;;;5052894;28;20414;-92
2023/01/17 14:18:01;;;;;;;3.97;0.30;;;6.00;77.00;;;;;;5051784;28;20431;-92
2023/01/17 14:20:41;;;;;;;2.10;0.10;;;5.90;76.40;;;;;;5050984;28;20400;-92
2023/01/17 14:23:22;;;;;;;2.95;0.15;;;5.90;77.30;;;;;;5052544;28;20504;-91
2023/01/17 14:25:50;;;;;;;1.08;0.10;;;5.80;77.80;;;;;;5050383;28;20521;-92
2023/01/17 14:28:29;;;;;;;2.33;0.20;;;5.80;78.30;;;;;;5052873;28;20488;-92
2023/01/17 14:30:57;;;;;;;3.42;0.20;;;5.70;77.20;;;;;;5051962;28;20774;-90
2023/01/17 14:33:41;;;;;;;1.75;0.10;;;5.70;78.10;;;;;;5051005;28;20864;-92
2023/01/17 14:36:18;;;;;;;0.85;0.00;;;5.50;77.40;;;;;;5052265;28;20489;-91
2023/01/17 14:38:44;;;;;;;3.25;0.10;;;5.40;78.40;;;;;;5050642;28;20760;-94
2023/01/17 14:41:18;;;;;;;2.35;0.10;;;5.20;78.80;;;;;;5052111;28;20432;-91
2023/01/17 14:43:45;;;;;;;2.47;0.20;;;5.20;78.80;;;;;;5050937;28;20898;-90
2023/01/17 14:46:31;;;;;;;4.47;0.50;;;5.10;79.20;;;;;;5051576;28;20794;-91